sensor_id;sensor_type;location;lat;lon;timestamp;P1;durP1;ratioP1;P2;durP2;ratioP2
19569;SDS011;9931;51.458;7.256;2023-07-20T00:01:48;36.70;;;8.15;;
19569;SDS011;9931;51.458;7.256;2023-07-20T00:04:14;23.70;;;7.90;;
19569;SDS011;9931;51.458;7.256;2023-07-20T00:06:39;16.77;;;7.70;;
19569;SDS011;9931;51.458;7.256;2023-07-20T00:09:05;40.63;;;8.73;;
19569;SDS011;9931;51.458;7.256;2023-07-20T00:11:30;19.55;;;7.97;;
19569;SDS011;9931;51.458;7.256;2023-07-20T00:13:55;24.05;;;7.85;;
19569;SDS011;9931;51.458;7.256;2023-07-20T00:16:21;43.80;;;9.57;;
19569;SDS011;9931;51.458;7.256;2023-07-20T00:18:46;60.60;;;11.52;;
19569;SDS011;9931;51.458;7.256;2023-07-20T00:21:11;23.27;;;8.50;;
19569;SDS011;9931;51.458;7.256;2023-07-20T00:23:37;19.75;;;8.43;;
19569;SDS011;9931;51.458;7.256;2023-07-20T00:26:02;20.70;;;8.05;;
19569;SDS011;9931;51.458;7.256;2023-07-20T00:28:28;40.23;;;10.13;;
19569;SDS011;9931;51.458;7.256;2023-07-20T00:30:53;36.05;;;9.85;;
19569;SDS011;9931;51.458;7.256;2023-07-20T00:33:18;44.10;;;10.80;;
19569;SDS011;9931;51.458;7.256;2023-07-20T00:35:44;23.05;;;9.45;;
19569;SDS011;9931;51.458;7.256;2023-07-20T00:38:09;36.25;;;9.88;;
19569;SDS011;9931;51.458;7.256;2023-07-20T00:40:35;12.43;;;8.90;;
19569;SDS011;9931;51.458;7.256;2023-07-20T00:43:00;32.40;;;10.32;;
19569;SDS011;9931;51.458;7.256;2023-07-20T00:45:26;21.20;;;9.32;;
19569;SDS011;9931;51.458;7.256;2023-07-20T00:47:51;31.98;;;10.18;;
19569;SDS011;9931;51.458;7.256;2023-07-20T00:50:17;22.17;;;9.55;;
19569;SDS011;9931;51.458;7.256;2023-07-20T00:52:42;25.50;;;8.77;;
19569;SDS011;9931;51.458;7.256;2023-07-20T00:55:07;28.73;;;8.98;;
19569;SDS011;9931;51.458;7.256;2023-07-20T00:57:34;56.90;;;10.95;;
19569;SDS011;9931;51.458;7.256;2023-07-20T00:59:59;33.90;;;9.60;;
19569;SDS011;9931;51.458;7.256;2023-07-20T01:02:24;24.95;;;8.65;;
19569;SDS011;9931;51.458;7.256;2023-07-20T01:04:49;20.23;;;8.02;;
19569;SDS011;9931;51.458;7.256;2023-07-20T01:12:47;21.98;;;7.95;;
19569;SDS011;9931;51.458;7.256;2023-07-20T01:15:13;23.77;;;7.05;;
19569;SDS011;9931;51.458;7.256;2023-07-20T01:17:38;24.77;;;6.90;;
19569;SDS011;9931;51.458;7.256;2023-07-20T01:20:04;52.28;;;8.90;;
19569;SDS011;9931;51.458;7.256;2023-07-20T01:28:20;18.90;;;6.80;;
19569;SDS011;9931;51.458;7.256;2023-07-20T01:32:44;13.27;;;5.47;;
19569;SDS011;9931;51.458;7.256;2023-07-20T01:35:10;19.92;;;7.30;;
19569;SDS011;9931;51.458;7.256;2023-07-20T01:37:39;18.00;;;6.55;;
19569;SDS011;9931;51.458;7.256;2023-07-20T01:40:05;27.70;;;8.07;;
19569;SDS011;9931;51.458;7.256;2023-07-20T01:42:30;18.77;;;7.82;;
19569;SDS011;9931;51.458;7.256;2023-07-20T01:44:56;20.63;;;7.43;;
19569;SDS011;9931;51.458;7.256;2023-07-20T01:47:21;65.77;;;10.07;;
19569;SDS011;9931;51.458;7.256;2023-07-20T01:49:46;29.90;;;7.63;;
19569;SDS011;9931;51.458;7.256;2023-07-20T01:52:11;22.52;;;7.45;;
19569;SDS011;9931;51.458;7.256;2023-07-20T01:54:36;34.90;;;7.80;;
19569;SDS011;9931;51.458;7.256;2023-07-20T01:57:02;33.00;;;7.72;;
19569;SDS011;9931;51.458;7.256;2023-07-20T01:59:27;78.13;;;10.55;;
19569;SDS011;9931;51.458;7.256;2023-07-20T02:01:52;178.27;;;17.70;;
19569;SDS011;9931;51.458;7.256;2023-07-20T02:04:17;69.60;;;9.50;;
19569;SDS011;9931;51.458;7.256;2023-07-20T02:06:43;22.90;;;5.60;;
19569;SDS011;9931;51.458;7.256;2023-07-20T02:09:08;102.40;;;11.35;;
19569;SDS011;9931;51.458;7.256;2023-07-20T02:11:33;24.38;;;6.40;;
19569;SDS011;9931;51.458;7.256;2023-07-20T02:13:59;11.57;;;5.13;;
19569;SDS011;9931;51.458;7.256;2023-07-20T02:16:24;57.05;;;8.32;;
19569;SDS011;9931;51.458;7.256;2023-07-20T02:18:49;10.55;;;5.20;;
19569;SDS011;9931;51.458;7.256;2023-07-20T02:21:14;35.58;;;7.03;;
19569;SDS011;9931;51.458;7.256;2023-07-20T02:23:40;33.85;;;6.65;;
19569;SDS011;9931;51.458;7.256;2023-07-20T02:26:13;29.38;;;5.80;;
19569;SDS011;9931;51.458;7.256;2023-07-20T02:28:38;18.50;;;4.97;;
19569;SDS011;9931;51.458;7.256;2023-07-20T02:31:03;24.23;;;5.77;;
19569;SDS011;9931;51.458;7.256;2023-07-20T02:33:28;17.10;;;4.67;;
19569;SDS011;9931;51.458;7.256;2023-07-20T02:35:53;21.88;;;5.90;;
19569;SDS011;9931;51.458;7.256;2023-07-20T02:38:19;19.95;;;5.18;;
19569;SDS011;9931;51.458;7.256;2023-07-20T02:40:44;75.82;;;8.75;;
19569;SDS011;9931;51.458;7.256;2023-07-20T02:43:09;53.58;;;7.50;;
19569;SDS011;9931;51.458;7.256;2023-07-20T02:45:35;4.20;;;3.80;;
19569;SDS011;9931;51.458;7.256;2023-07-20T02:48:00;74.05;;;9.05;;
19569;SDS011;9931;51.458;7.256;2023-07-20T02:50:26;41.00;;;6.55;;
19569;SDS011;9931;51.458;7.256;2023-07-20T02:52:51;16.10;;;4.78;;
19569;SDS011;9931;51.458;7.256;2023-07-20T02:55:16;29.77;;;5.90;;
19569;SDS011;9931;51.458;7.256;2023-07-20T02:57:42;38.38;;;6.00;;
19569;SDS011;9931;51.458;7.256;2023-07-20T03:00:07;28.55;;;5.65;;
19569;SDS011;9931;51.458;7.256;2023-07-20T03:02:32;17.65;;;4.63;;
19569;SDS011;9931;51.458;7.256;2023-07-20T03:04:58;18.52;;;4.80;;
19569;SDS011;9931;51.458;7.256;2023-07-20T03:07:24;16.85;;;4.93;;
19569;SDS011;9931;51.458;7.256;2023-07-20T03:09:49;43.17;;;6.70;;
19569;SDS011;9931;51.458;7.256;2023-07-20T03:12:14;24.33;;;4.85;;
19569;SDS011;9931;51.458;7.256;2023-07-20T03:14:40;14.30;;;4.35;;
19569;SDS011;9931;51.458;7.256;2023-07-20T03:17:05;55.97;;;7.00;;
19569;SDS011;9931;51.458;7.256;2023-07-20T03:19:30;64.35;;;7.80;;
19569;SDS011;9931;51.458;7.256;2023-07-20T03:21:55;49.37;;;7.03;;
19569;SDS011;9931;51.458;7.256;2023-07-20T03:24:21;19.23;;;5.05;;
19569;SDS011;9931;51.458;7.256;2023-07-20T03:26:46;17.10;;;4.72;;
19569;SDS011;9931;51.458;7.256;2023-07-20T03:29:11;20.90;;;5.05;;
19569;SDS011;9931;51.458;7.256;2023-07-20T03:31:36;34.10;;;6.33;;
19569;SDS011;9931;51.458;7.256;2023-07-20T03:34:02;11.77;;;4.63;;
19569;SDS011;9931;51.458;7.256;2023-07-20T03:36:27;16.38;;;4.70;;
19569;SDS011;9931;51.458;7.256;2023-07-20T03:38:52;22.13;;;5.22;;
19569;SDS011;9931;51.458;7.256;2023-07-20T03:41:17;21.07;;;5.17;;
19569;SDS011;9931;51.458;7.256;2023-07-20T03:43:44;14.10;;;4.68;;
19569;SDS011;9931;51.458;7.256;2023-07-20T03:46:10;48.77;;;6.87;;
19569;SDS011;9931;51.458;7.256;2023-07-20T03:48:35;18.48;;;4.97;;
19569;SDS011;9931;51.458;7.256;2023-07-20T03:51:00;24.27;;;5.25;;
19569;SDS011;9931;51.458;7.256;2023-07-20T03:53:25;31.08;;;5.65;;
19569;SDS011;9931;51.458;7.256;2023-07-20T03:55:51;19.13;;;4.93;;
19569;SDS011;9931;51.458;7.256;2023-07-20T03:58:17;24.63;;;5.20;;
19569;SDS011;9931;51.458;7.256;2023-07-20T04:00:46;17.02;;;5.50;;
19569;SDS011;9931;51.458;7.256;2023-07-20T04:03:11;26.20;;;5.50;;
19569;SDS011;9931;51.458;7.256;2023-07-20T04:05:36;11.15;;;4.72;;
19569;SDS011;9931;51.458;7.256;2023-07-20T04:08:02;58.30;;;8.00;;
19569;SDS011;9931;51.458;7.256;2023-07-20T04:10:27;55.38;;;8.00;;
19569;SDS011;9931;51.458;7.256;2023-07-20T04:12:52;20.23;;;6.20;;
19569;SDS011;9931;51.458;7.256;2023-07-20T04:15:17;19.95;;;5.50;;
19569;SDS011;9931;51.458;7.256;2023-07-20T04:17:42;73.47;;;9.55;;
19569;SDS011;9931;51.458;7.256;2023-07-20T04:20:09;38.78;;;7.40;;
19569;SDS011;9931;51.458;7.256;2023-07-20T04:22:34;19.70;;;6.85;;
19569;SDS011;9931;51.458;7.256;2023-07-20T04:25:00;21.83;;;5.97;;
19569;SDS011;9931;51.458;7.256;2023-07-20T04:27:25;18.60;;;6.72;;
19569;SDS011;9931;51.458;7.256;2023-07-20T04:29:51;15.60;;;6.32;;
19569;SDS011;9931;51.458;7.256;2023-07-20T04:32:16;27.75;;;6.43;;
19569;SDS011;9931;51.458;7.256;2023-07-20T04:34:42;18.23;;;4.73;;
19569;SDS011;9931;51.458;7.256;2023-07-20T04:37:07;28.10;;;5.65;;
19569;SDS011;9931;51.458;7.256;2023-07-20T04:39:32;76.03;;;8.97;;
19569;SDS011;9931;51.458;7.256;2023-07-20T04:41:57;21.43;;;5.33;;
19569;SDS011;9931;51.458;7.256;2023-07-20T04:44:23;35.75;;;6.15;;
19569;SDS011;9931;51.458;7.256;2023-07-20T04:46:48;55.45;;;7.90;;
19569;SDS011;9931;51.458;7.256;2023-07-20T04:49:13;30.45;;;6.18;;
19569;SDS011;9931;51.458;7.256;2023-07-20T04:51:39;30.85;;;5.32;;
19569;SDS011;9931;51.458;7.256;2023-07-20T04:54:04;27.15;;;5.25;;
19569;SDS011;9931;51.458;7.256;2023-07-20T04:56:29;19.00;;;4.70;;
19569;SDS011;9931;51.458;7.256;2023-07-20T04:58:54;13.68;;;4.10;;
19569;SDS011;9931;51.458;7.256;2023-07-20T05:01:20;22.27;;;5.18;;
19569;SDS011;9931;51.458;7.256;2023-07-20T05:03:45;17.00;;;4.70;;
19569;SDS011;9931;51.458;7.256;2023-07-20T05:06:10;31.08;;;5.13;;
19569;SDS011;9931;51.458;7.256;2023-07-20T05:08:35;32.00;;;5.93;;
19569;SDS011;9931;51.458;7.256;2023-07-20T05:11:01;17.77;;;4.97;;
19569;SDS011;9931;51.458;7.256;2023-07-20T05:13:26;26.20;;;6.22;;
19569;SDS011;9931;51.458;7.256;2023-07-20T05:15:52;24.17;;;6.40;;
19569;SDS011;9931;51.458;7.256;2023-07-20T05:18:17;26.05;;;7.10;;
19569;SDS011;9931;51.458;7.256;2023-07-20T05:20:45;19.20;;;7.05;;
19569;SDS011;9931;51.458;7.256;2023-07-20T05:23:10;28.08;;;7.38;;
19569;SDS011;9931;51.458;7.256;2023-07-20T05:25:36;25.95;;;8.13;;
19569;SDS011;9931;51.458;7.256;2023-07-20T05:28:01;22.20;;;6.20;;
19569;SDS011;9931;51.458;7.256;2023-07-20T05:30:26;18.30;;;6.18;;
19569;SDS011;9931;51.458;7.256;2023-07-20T05:32:51;25.57;;;6.57;;
19569;SDS011;9931;51.458;7.256;2023-07-20T05:35:19;56.67;;;8.95;;
19569;SDS011;9931;51.458;7.256;2023-07-20T05:37:45;37.20;;;7.95;;
19569;SDS011;9931;51.458;7.256;2023-07-20T05:40:10;23.45;;;6.88;;
19569;SDS011;9931;51.458;7.256;2023-07-20T05:42:37;29.10;;;7.28;;
19569;SDS011;9931;51.458;7.256;2023-07-20T05:45:02;20.83;;;7.40;;
19569;SDS011;9931;51.458;7.256;2023-07-20T05:47:27;8.85;;;7.07;;
19569;SDS011;9931;51.458;7.256;2023-07-20T05:49:53;32.10;;;9.00;;
19569;SDS011;9931;51.458;7.256;2023-07-20T05:52:18;32.00;;;8.43;;
19569;SDS011;9931;51.458;7.256;2023-07-20T05:54:44;19.10;;;6.93;;
19569;SDS011;9931;51.458;7.256;2023-07-20T05:57:09;31.70;;;8.48;;
19569;SDS011;9931;51.458;7.256;2023-07-20T05:59:35;76.88;;;11.98;;
19569;SDS011;9931;51.458;7.256;2023-07-20T06:02:00;13.13;;;7.20;;
19569;SDS011;9931;51.458;7.256;2023-07-20T06:04:25;21.33;;;7.57;;
19569;SDS011;9931;51.458;7.256;2023-07-20T06:06:51;19.47;;;8.57;;
19569;SDS011;9931;51.458;7.256;2023-07-20T06:09:16;44.33;;;10.80;;
19569;SDS011;9931;51.458;7.256;2023-07-20T06:11:41;20.08;;;8.43;;
19569;SDS011;9931;51.458;7.256;2023-07-20T06:14:06;16.98;;;6.93;;
19569;SDS011;9931;51.458;7.256;2023-07-20T06:16:32;16.35;;;6.82;;
19569;SDS011;9931;51.458;7.256;2023-07-20T06:18:58;20.20;;;8.25;;
19569;SDS011;9931;51.458;7.256;2023-07-20T06:21:23;31.95;;;9.43;;
19569;SDS011;9931;51.458;7.256;2023-07-20T06:23:48;24.80;;;10.60;;
19569;SDS011;9931;51.458;7.256;2023-07-20T06:26:13;29.55;;;14.57;;
19569;SDS011;9931;51.458;7.256;2023-07-20T06:28:39;48.20;;;15.23;;
19569;SDS011;9931;51.458;7.256;2023-07-20T06:31:04;32.13;;;11.40;;
19569;SDS011;9931;51.458;7.256;2023-07-20T06:33:29;27.40;;;10.13;;
19569;SDS011;9931;51.458;7.256;2023-07-20T06:35:54;47.78;;;11.60;;
19569;SDS011;9931;51.458;7.256;2023-07-20T06:38:21;38.30;;;12.05;;
19569;SDS011;9931;51.458;7.256;2023-07-20T06:40:48;31.98;;;11.75;;
19569;SDS011;9931;51.458;7.256;2023-07-20T06:43:13;49.15;;;14.57;;
19569;SDS011;9931;51.458;7.256;2023-07-20T06:45:38;34.30;;;13.13;;
19569;SDS011;9931;51.458;7.256;2023-07-20T06:48:04;34.05;;;13.48;;
19569;SDS011;9931;51.458;7.256;2023-07-20T06:50:29;38.40;;;17.65;;
19569;SDS011;9931;51.458;7.256;2023-07-20T06:52:54;21.77;;;15.43;;
19569;SDS011;9931;51.458;7.256;2023-07-20T06:55:20;31.13;;;18.13;;
19569;SDS011;9931;51.458;7.256;2023-07-20T06:57:45;52.07;;;18.77;;
19569;SDS011;9931;51.458;7.256;2023-07-20T07:00:10;21.20;;;16.03;;
19569;SDS011;9931;51.458;7.256;2023-07-20T07:02:36;25.35;;;15.07;;
19569;SDS011;9931;51.458;7.256;2023-07-20T07:05:01;26.02;;;15.50;;
19569;SDS011;9931;51.458;7.256;2023-07-20T07:07:26;27.77;;;17.20;;
19569;SDS011;9931;51.458;7.256;2023-07-20T07:09:52;45.40;;;21.95;;
19569;SDS011;9931;51.458;7.256;2023-07-20T07:12:17;34.07;;;22.10;;
19569;SDS011;9931;51.458;7.256;2023-07-20T07:14:42;28.85;;;25.80;;
19569;SDS011;9931;51.458;7.256;2023-07-20T07:17:07;35.80;;;32.10;;
19569;SDS011;9931;51.458;7.256;2023-07-20T07:19:33;94.80;;;39.03;;
19569;SDS011;9931;51.458;7.256;2023-07-20T07:21:58;44.30;;;25.60;;
19569;SDS011;9931;51.458;7.256;2023-07-20T07:24:26;28.30;;;23.80;;
19569;SDS011;9931;51.458;7.256;2023-07-20T07:26:52;21.90;;;19.75;;
19569;SDS011;9931;51.458;7.256;2023-07-20T07:29:18;26.58;;;18.02;;
19569;SDS011;9931;51.458;7.256;2023-07-20T07:31:43;44.28;;;18.85;;
19569;SDS011;9931;51.458;7.256;2023-07-20T07:34:08;21.97;;;16.23;;
19569;SDS011;9931;51.458;7.256;2023-07-20T07:36:33;30.57;;;18.70;;
19569;SDS011;9931;51.458;7.256;2023-07-20T07:38:58;24.63;;;16.27;;
19569;SDS011;9931;51.458;7.256;2023-07-20T07:41:24;37.90;;;21.57;;
19569;SDS011;9931;51.458;7.256;2023-07-20T07:43:49;29.30;;;23.57;;
19569;SDS011;9931;51.458;7.256;2023-07-20T07:46:14;24.88;;;22.13;;
19569;SDS011;9931;51.458;7.256;2023-07-20T07:48:40;30.13;;;23.77;;
19569;SDS011;9931;51.458;7.256;2023-07-20T07:51:05;34.13;;;24.48;;
19569;SDS011;9931;51.458;7.256;2023-07-20T07:53:30;31.88;;;28.67;;
19569;SDS011;9931;51.458;7.256;2023-07-20T07:55:57;29.15;;;25.45;;
19569;SDS011;9931;51.458;7.256;2023-07-20T07:58:22;34.13;;;25.40;;
19569;SDS011;9931;51.458;7.256;2023-07-20T08:00:47;61.55;;;36.60;;
19569;SDS011;9931;51.458;7.256;2023-07-20T08:03:13;82.00;;;35.60;;
19569;SDS011;9931;51.458;7.256;2023-07-20T08:05:38;34.55;;;28.73;;
19569;SDS011;9931;51.458;7.256;2023-07-20T08:08:03;33.50;;;30.05;;
19569;SDS011;9931;51.458;7.256;2023-07-20T08:10:29;34.25;;;30.98;;
19569;SDS011;9931;51.458;7.256;2023-07-20T08:12:54;39.40;;;36.78;;
19569;SDS011;9931;51.458;7.256;2023-07-20T08:15:19;45.50;;;40.37;;
19569;SDS011;9931;51.458;7.256;2023-07-20T08:17:44;43.43;;;39.07;;
19569;SDS011;9931;51.458;7.256;2023-07-20T08:20:09;46.47;;;42.25;;
19569;SDS011;9931;51.458;7.256;2023-07-20T08:22:37;52.42;;;48.95;;
19569;SDS011;9931;51.458;7.256;2023-07-20T08:25:02;60.03;;;55.08;;
19569;SDS011;9931;51.458;7.256;2023-07-20T08:27:27;54.55;;;49.92;;
19569;SDS011;9931;51.458;7.256;2023-07-20T08:29:53;59.10;;;46.08;;
19569;SDS011;9931;51.458;7.256;2023-07-20T08:32:18;59.97;;;54.23;;
19569;SDS011;9931;51.458;7.256;2023-07-20T08:34:43;62.87;;;56.80;;
19569;SDS011;9931;51.458;7.256;2023-07-20T08:37:08;61.15;;;55.17;;
19569;SDS011;9931;51.458;7.256;2023-07-20T08:39:35;228.13;;;71.10;;
19569;SDS011;9931;51.458;7.256;2023-07-20T08:42:00;55.38;;;50.50;;
19569;SDS011;9931;51.458;7.256;2023-07-20T08:44:29;46.15;;;43.00;;
19569;SDS011;9931;51.458;7.256;2023-07-20T08:46:54;48.22;;;33.42;;
19569;SDS011;9931;51.458;7.256;2023-07-20T08:49:20;72.93;;;34.08;;
19569;SDS011;9931;51.458;7.256;2023-07-20T08:51:46;39.95;;;32.00;;
19569;SDS011;9931;51.458;7.256;2023-07-20T08:54:11;38.75;;;34.65;;
19569;SDS011;9931;51.458;7.256;2023-07-20T08:56:37;54.58;;;36.22;;
19569;SDS011;9931;51.458;7.256;2023-07-20T08:59:03;42.80;;;38.70;;
19569;SDS011;9931;51.458;7.256;2023-07-20T09:01:29;44.30;;;36.85;;
19569;SDS011;9931;51.458;7.256;2023-07-20T09:03:55;45.47;;;40.75;;
19569;SDS011;9931;51.458;7.256;2023-07-20T09:06:20;50.67;;;45.50;;
19569;SDS011;9931;51.458;7.256;2023-07-20T09:08:46;50.58;;;46.20;;
19569;SDS011;9931;51.458;7.256;2023-07-20T09:11:11;54.58;;;49.40;;
19569;SDS011;9931;51.458;7.256;2023-07-20T09:13:37;73.28;;;50.38;;
19569;SDS011;9931;51.458;7.256;2023-07-20T09:16:02;59.00;;;53.35;;
19569;SDS011;9931;51.458;7.256;2023-07-20T09:18:30;69.50;;;62.67;;
19569;SDS011;9931;51.458;7.256;2023-07-20T09:21:00;64.25;;;58.63;;
19569;SDS011;9931;51.458;7.256;2023-07-20T09:23:36;74.72;;;67.72;;
19569;SDS011;9931;51.458;7.256;2023-07-20T09:26:17;78.80;;;71.15;;
19569;SDS011;9931;51.458;7.256;2023-07-20T09:28:52;77.90;;;71.60;;
19569;SDS011;9931;51.458;7.256;2023-07-20T09:31:17;77.60;;;70.60;;
19569;SDS011;9931;51.458;7.256;2023-07-20T09:33:43;64.95;;;60.25;;
19569;SDS011;9931;51.458;7.256;2023-07-20T09:36:12;73.45;;;66.35;;
19569;SDS011;9931;51.458;7.256;2023-07-20T09:38:38;75.75;;;68.72;;
19569;SDS011;9931;51.458;7.256;2023-07-20T09:41:05;79.35;;;69.80;;
19569;SDS011;9931;51.458;7.256;2023-07-20T09:43:30;75.95;;;68.70;;
19569;SDS011;9931;51.458;7.256;2023-07-20T09:45:57;69.40;;;62.72;;
19569;SDS011;9931;51.458;7.256;2023-07-20T09:48:23;73.93;;;67.25;;
19569;SDS011;9931;51.458;7.256;2023-07-20T09:50:49;82.65;;;75.90;;
19569;SDS011;9931;51.458;7.256;2023-07-20T09:53:16;82.70;;;75.38;;
19569;SDS011;9931;51.458;7.256;2023-07-20T09:55:43;87.68;;;79.93;;
19569;SDS011;9931;51.458;7.256;2023-07-20T09:58:09;90.53;;;83.53;;
19569;SDS011;9931;51.458;7.256;2023-07-20T10:00:35;92.85;;;84.78;;
19569;SDS011;9931;51.458;7.256;2023-07-20T10:03:01;92.40;;;84.97;;
19569;SDS011;9931;51.458;7.256;2023-07-20T10:05:28;103.75;;;93.68;;
19569;SDS011;9931;51.458;7.256;2023-07-20T10:07:58;119.25;;;107.93;;
19569;SDS011;9931;51.458;7.256;2023-07-20T10:10:27;123.72;;;112.07;;
19569;SDS011;9931;51.458;7.256;2023-07-20T10:12:52;133.80;;;121.35;;
19569;SDS011;9931;51.458;7.256;2023-07-20T10:15:19;134.30;;;121.15;;
19569;SDS011;9931;51.458;7.256;2023-07-20T10:17:58;148.38;;;134.38;;
19569;SDS011;9931;51.458;7.256;2023-07-20T10:20:24;158.07;;;141.85;;
19569;SDS011;9931;51.458;7.256;2023-07-20T10:22:50;152.82;;;137.82;;
19569;SDS011;9931;51.458;7.256;2023-07-20T10:25:17;156.27;;;142.05;;
19569;SDS011;9931;51.458;7.256;2023-07-20T10:27:43;165.10;;;149.63;;
19569;SDS011;9931;51.458;7.256;2023-07-20T10:30:08;161.85;;;146.15;;
19569;SDS011;9931;51.458;7.256;2023-07-20T10:32:33;148.75;;;135.65;;
19569;SDS011;9931;51.458;7.256;2023-07-20T10:34:59;138.52;;;126.65;;
19569;SDS011;9931;51.458;7.256;2023-07-20T10:40:27;122.97;;;112.13;;
19569;SDS011;9931;51.458;7.256;2023-07-20T10:42:59;126.05;;;113.13;;
19569;SDS011;9931;51.458;7.256;2023-07-20T10:48:13;132.20;;;119.57;;
19569;SDS011;9931;51.458;7.256;2023-07-20T10:50:39;141.02;;;128.07;;
19569;SDS011;9931;51.458;7.256;2023-07-20T10:53:09;148.50;;;134.15;;
19569;SDS011;9931;51.458;7.256;2023-07-20T10:55:35;172.38;;;135.43;;
19569;SDS011;9931;51.458;7.256;2023-07-20T10:58:13;168.03;;;138.90;;
19569;SDS011;9931;51.458;7.256;2023-07-20T11:03:28;140.60;;;127.55;;
19569;SDS011;9931;51.458;7.256;2023-07-20T11:05:55;206.77;;;140.18;;
19569;SDS011;9931;51.458;7.256;2023-07-20T11:08:37;130.10;;;119.75;;
19569;SDS011;9931;51.458;7.256;2023-07-20T11:13:59;123.28;;;111.82;;
19569;SDS011;9931;51.458;7.256;2023-07-20T11:16:34;129.52;;;116.68;;
19569;SDS011;9931;51.458;7.256;2023-07-20T11:18:59;146.82;;;132.18;;
19569;SDS011;9931;51.458;7.256;2023-07-20T11:21:24;155.20;;;139.55;;
19569;SDS011;9931;51.458;7.256;2023-07-20T11:23:51;157.18;;;142.25;;
19569;SDS011;9931;51.458;7.256;2023-07-20T11:26:17;160.30;;;145.38;;
19569;SDS011;9931;51.458;7.256;2023-07-20T11:28:43;163.27;;;147.13;;
19569;SDS011;9931;51.458;7.256;2023-07-20T11:31:08;159.47;;;143.93;;
19569;SDS011;9931;51.458;7.256;2023-07-20T11:33:33;191.70;;;166.37;;
19569;SDS011;9931;51.458;7.256;2023-07-20T11:35:58;182.10;;;163.30;;
19569;SDS011;9931;51.458;7.256;2023-07-20T11:38:24;212.30;;;175.20;;
19569;SDS011;9931;51.458;7.256;2023-07-20T11:40:49;177.85;;;160.55;;
19569;SDS011;9931;51.458;7.256;2023-07-20T11:43:15;179.30;;;161.57;;
19569;SDS011;9931;51.458;7.256;2023-07-20T11:45:40;193.50;;;174.98;;
19569;SDS011;9931;51.458;7.256;2023-07-20T11:48:05;191.70;;;174.13;;
19569;SDS011;9931;51.458;7.256;2023-07-20T11:50:31;192.65;;;173.52;;
19569;SDS011;9931;51.458;7.256;2023-07-20T11:52:57;164.77;;;149.65;;
19569;SDS011;9931;51.458;7.256;2023-07-20T11:55:22;158.43;;;143.93;;
19569;SDS011;9931;51.458;7.256;2023-07-20T11:58:03;157.20;;;140.82;;
19569;SDS011;9931;51.458;7.256;2023-07-20T12:00:29;151.40;;;137.13;;
19569;SDS011;9931;51.458;7.256;2023-07-20T12:02:54;138.82;;;126.40;;
19569;SDS011;9931;51.458;7.256;2023-07-20T12:05:19;146.27;;;131.30;;
19569;SDS011;9931;51.458;7.256;2023-07-20T12:07:47;162.50;;;146.70;;
19569;SDS011;9931;51.458;7.256;2023-07-20T12:10:12;171.50;;;154.85;;
19569;SDS011;9931;51.458;7.256;2023-07-20T12:12:38;154.45;;;140.10;;
19569;SDS011;9931;51.458;7.256;2023-07-20T12:15:23;152.48;;;138.10;;
19569;SDS011;9931;51.458;7.256;2023-07-20T12:17:50;151.40;;;136.65;;
19569;SDS011;9931;51.458;7.256;2023-07-20T12:22:50;165.45;;;148.23;;
19569;SDS011;9931;51.458;7.256;2023-07-20T12:25:15;161.30;;;146.93;;
19569;SDS011;9931;51.458;7.256;2023-07-20T12:27:44;151.93;;;137.40;;
19569;SDS011;9931;51.458;7.256;2023-07-20T12:30:09;173.05;;;156.00;;
19569;SDS011;9931;51.458;7.256;2023-07-20T12:32:34;181.65;;;164.43;;
19569;SDS011;9931;51.458;7.256;2023-07-20T12:34:59;191.43;;;175.05;;
19569;SDS011;9931;51.458;7.256;2023-07-20T12:37:25;182.82;;;165.98;;
19569;SDS011;9931;51.458;7.256;2023-07-20T12:39:51;170.52;;;154.02;;
19569;SDS011;9931;51.458;7.256;2023-07-20T12:42:16;160.75;;;145.65;;
19569;SDS011;9931;51.458;7.256;2023-07-20T12:44:42;141.20;;;128.20;;
19569;SDS011;9931;51.458;7.256;2023-07-20T12:47:07;137.95;;;124.80;;
19569;SDS011;9931;51.458;7.256;2023-07-20T12:49:32;147.88;;;132.75;;
19569;SDS011;9931;51.458;7.256;2023-07-20T12:51:57;147.77;;;133.63;;
19569;SDS011;9931;51.458;7.256;2023-07-20T12:54:23;151.32;;;137.05;;
19569;SDS011;9931;51.458;7.256;2023-07-20T12:56:48;157.45;;;140.38;;
19569;SDS011;9931;51.458;7.256;2023-07-20T12:59:13;161.88;;;146.73;;
19569;SDS011;9931;51.458;7.256;2023-07-20T13:01:39;159.83;;;146.13;;
19569;SDS011;9931;51.458;7.256;2023-07-20T13:04:06;157.48;;;142.95;;
19569;SDS011;9931;51.458;7.256;2023-07-20T13:06:34;153.48;;;139.32;;
19569;SDS011;9931;51.458;7.256;2023-07-20T13:08:59;138.77;;;126.82;;
19569;SDS011;9931;51.458;7.256;2023-07-20T13:11:24;140.07;;;127.38;;
19569;SDS011;9931;51.458;7.256;2023-07-20T13:13:50;135.97;;;123.40;;
19569;SDS011;9931;51.458;7.256;2023-07-20T13:16:15;132.02;;;120.15;;
19569;SDS011;9931;51.458;7.256;2023-07-20T13:18:40;132.02;;;120.85;;
19569;SDS011;9931;51.458;7.256;2023-07-20T13:21:05;125.43;;;114.20;;
19569;SDS011;9931;51.458;7.256;2023-07-20T13:23:35;122.85;;;112.55;;
19569;SDS011;9931;51.458;7.256;2023-07-20T13:26:00;114.57;;;104.87;;
19569;SDS011;9931;51.458;7.256;2023-07-20T13:28:25;116.25;;;105.85;;
19569;SDS011;9931;51.458;7.256;2023-07-20T13:30:50;163.93;;;117.85;;
19569;SDS011;9931;51.458;7.256;2023-07-20T13:33:16;120.88;;;110.22;;
19569;SDS011;9931;51.458;7.256;2023-07-20T13:35:41;120.93;;;109.20;;
19569;SDS011;9931;51.458;7.256;2023-07-20T13:38:06;128.43;;;107.35;;
19569;SDS011;9931;51.458;7.256;2023-07-20T13:40:32;121.83;;;111.80;;
19569;SDS011;9931;51.458;7.256;2023-07-20T13:42:57;119.25;;;109.78;;
19569;SDS011;9931;51.458;7.256;2023-07-20T13:45:23;113.30;;;102.93;;
19569;SDS011;9931;51.458;7.256;2023-07-20T13:47:48;95.05;;;86.85;;
19569;SDS011;9931;51.458;7.256;2023-07-20T13:50:13;111.18;;;101.03;;
19569;SDS011;9931;51.458;7.256;2023-07-20T13:52:39;121.33;;;109.93;;
19569;SDS011;9931;51.458;7.256;2023-07-20T13:55:04;133.43;;;107.40;;
19569;SDS011;9931;51.458;7.256;2023-07-20T13:57:29;112.43;;;101.80;;
19569;SDS011;9931;51.458;7.256;2023-07-20T13:59:54;103.57;;;95.07;;
19569;SDS011;9931;51.458;7.256;2023-07-20T14:02:20;110.43;;;99.85;;
19569;SDS011;9931;51.458;7.256;2023-07-20T14:04:45;112.78;;;102.95;;
19569;SDS011;9931;51.458;7.256;2023-07-20T14:07:10;112.68;;;102.47;;
19569;SDS011;9931;51.458;7.256;2023-07-20T14:09:36;152.27;;;112.30;;
19569;SDS011;9931;51.458;7.256;2023-07-20T14:12:01;115.78;;;105.55;;
19569;SDS011;9931;51.458;7.256;2023-07-20T14:14:26;119.40;;;108.78;;
19569;SDS011;9931;51.458;7.256;2023-07-20T14:16:52;123.00;;;111.93;;
19569;SDS011;9931;51.458;7.256;2023-07-20T14:19:17;129.23;;;117.60;;
19569;SDS011;9931;51.458;7.256;2023-07-20T14:21:42;129.47;;;118.20;;
19569;SDS011;9931;51.458;7.256;2023-07-20T14:24:07;116.75;;;106.68;;
19569;SDS011;9931;51.458;7.256;2023-07-20T14:26:32;118.05;;;107.47;;
19569;SDS011;9931;51.458;7.256;2023-07-20T14:28:58;118.43;;;107.90;;
19569;SDS011;9931;51.458;7.256;2023-07-20T14:31:23;123.63;;;112.38;;
19569;SDS011;9931;51.458;7.256;2023-07-20T14:33:48;113.57;;;103.90;;
19569;SDS011;9931;51.458;7.256;2023-07-20T14:36:13;111.20;;;101.40;;
19569;SDS011;9931;51.458;7.256;2023-07-20T14:38:39;112.85;;;102.82;;
19569;SDS011;9931;51.458;7.256;2023-07-20T14:41:05;113.00;;;103.50;;
19569;SDS011;9931;51.458;7.256;2023-07-20T14:43:31;111.82;;;102.85;;
19569;SDS011;9931;51.458;7.256;2023-07-20T14:45:56;118.38;;;106.78;;
19569;SDS011;9931;51.458;7.256;2023-07-20T14:48:21;123.50;;;110.65;;
19569;SDS011;9931;51.458;7.256;2023-07-20T14:50:46;115.13;;;105.43;;